sensor_id;sensor_type;location;lat;lon;timestamp;temperature;humidity
77523;SHT31;66637;-29.628;-49.938;2023-11-21T00:01:39;21.02;84.16
77523;SHT31;66637;-29.628;-49.938;2023-11-21T00:04:09;21.00;84.39
77523;SHT31;66637;-29.628;-49.938;2023-11-21T00:06:41;21.00;84.25
77523;SHT31;66637;-29.628;-49.938;2023-11-21T00:09:13;20.97;84.40
77523;SHT31;66637;-29.628;-49.938;2023-11-21T00:11:46;20.97;84.38
77523;SHT31;66637;-29.628;-49.938;2023-11-21T00:14:17;20.97;84.45
77523;SHT31;66637;-29.628;-49.938;2023-11-21T00:16:48;20.96;84.56
77523;SHT31;66637;-29.628;-49.938;2023-11-21T00:19:20;20.92;84.63
77523;SHT31;66637;-29.628;-49.938;2023-11-21T00:21:52;20.93;84.75
77523;SHT31;66637;-29.628;-49.938;2023-11-21T00:24:23;20.92;84.79
77523;SHT31;66637;-29.628;-49.938;2023-11-21T00:26:54;20.90;84.89
77523;SHT31;66637;-29.628;-49.938;2023-11-21T00:29:26;20.86;84.96
77523;SHT31;66637;-29.628;-49.938;2023-11-21T00:31:57;20.85;85.06
77523;SHT31;66637;-29.628;-49.938;2023-11-21T00:34:28;20.83;85.07
77523;SHT31;66637;-29.628;-49.938;2023-11-21T00:37:00;20.86;85.17
77523;SHT31;66637;-29.628;-49.938;2023-11-21T00:39:32;20.85;85.23
77523;SHT31;66637;-29.628;-49.938;2023-11-21T00:42:02;20.86;85.33
77523;SHT31;66637;-29.628;-49.938;2023-11-21T00:44:52;20.82;85.47
77523;SHT31;66637;-29.628;-49.938;2023-11-21T00:47:23;20.79;85.53
77523;SHT31;66637;-29.628;-49.938;2023-11-21T00:49:55;20.80;85.63
77523;SHT31;66637;-29.628;-49.938;2023-11-21T00:52:26;20.82;85.77
77523;SHT31;66637;-29.628;-49.938;2023-11-21T00:54:58;20.80;85.78
77523;SHT31;66637;-29.628;-49.938;2023-11-21T00:57:32;20.79;85.87
77523;SHT31;66637;-29.628;-49.938;2023-11-21T01:00:04;20.82;86.05
77523;SHT31;66637;-29.628;-49.938;2023-11-21T01:02:44;20.79;86.17
77523;SHT31;66637;-29.628;-49.938;2023-11-21T01:05:15;20.79;86.42
77523;SHT31;66637;-29.628;-49.938;2023-11-21T01:07:46;20.77;86.52
77523;SHT31;66637;-29.628;-49.938;2023-11-21T01:10:17;20.82;86.80
77523;SHT31;66637;-29.628;-49.938;2023-11-21T01:12:47;20.85;86.91
77523;SHT31;66637;-29.628;-49.938;2023-11-21T01:15:18;20.82;87.05
77523;SHT31;66637;-29.628;-49.938;2023-11-21T01:17:48;20.86;87.16
77523;SHT31;66637;-29.628;-49.938;2023-11-21T01:20:21;20.87;86.99
77523;SHT31;66637;-29.628;-49.938;2023-11-21T01:22:52;20.89;87.19
77523;SHT31;66637;-29.628;-49.938;2023-11-21T01:25:23;20.87;87.19
77523;SHT31;66637;-29.628;-49.938;2023-11-21T01:27:53;20.86;87.24
77523;SHT31;66637;-29.628;-49.938;2023-11-21T01:30:23;20.89;87.22
77523;SHT31;66637;-29.628;-49.938;2023-11-21T01:32:58;20.86;87.42
77523;SHT31;66637;-29.628;-49.938;2023-11-21T01:35:28;20.85;87.50
77523;SHT31;66637;-29.628;-49.938;2023-11-21T01:37:59;20.83;87.41
77523;SHT31;66637;-29.628;-49.938;2023-11-21T01:40:30;20.82;87.62
77523;SHT31;66637;-29.628;-49.938;2023-11-21T01:43:02;20.83;87.70
77523;SHT31;66637;-29.628;-49.938;2023-11-21T01:45:35;20.79;87.62
77523;SHT31;66637;-29.628;-49.938;2023-11-21T01:48:06;20.77;87.85
77523;SHT31;66637;-29.628;-49.938;2023-11-21T01:50:41;20.76;87.60
77523;SHT31;66637;-29.628;-49.938;2023-11-21T01:53:13;20.73;87.81
77523;SHT31;66637;-29.628;-49.938;2023-11-21T01:55:43;20.75;87.84
77523;SHT31;66637;-29.628;-49.938;2023-11-21T01:58:16;20.71;88.04
77523;SHT31;66637;-29.628;-49.938;2023-11-21T02:00:47;20.69;88.02
77523;SHT31;66637;-29.628;-49.938;2023-11-21T02:03:21;20.69;88.01
77523;SHT31;66637;-29.628;-49.938;2023-11-21T02:05:53;20.71;88.07
77523;SHT31;66637;-29.628;-49.938;2023-11-21T02:08:26;20.66;88.06
77523;SHT31;66637;-29.628;-49.938;2023-11-21T02:10:56;20.69;88.01
77523;SHT31;66637;-29.628;-49.938;2023-11-21T02:13:27;20.68;88.04
77523;SHT31;66637;-29.628;-49.938;2023-11-21T02:15:58;20.71;88.11
77523;SHT31;66637;-29.628;-49.938;2023-11-21T02:18:30;20.68;87.99
77523;SHT31;66637;-29.628;-49.938;2023-11-21T02:21:01;20.64;88.05
77523;SHT31;66637;-29.628;-49.938;2023-11-21T02:23:34;20.61;88.07
77523;SHT31;66637;-29.628;-49.938;2023-11-21T02:26:05;20.59;87.95
77523;SHT31;66637;-29.628;-49.938;2023-11-21T02:28:36;20.56;87.97
77523;SHT31;66637;-29.628;-49.938;2023-11-21T02:31:09;20.55;87.94
77523;SHT31;66637;-29.628;-49.938;2023-11-21T02:33:39;20.56;87.96
77523;SHT31;66637;-29.628;-49.938;2023-11-21T02:36:10;20.53;87.79
77523;SHT31;66637;-29.628;-49.938;2023-11-21T02:38:40;20.52;87.65
77523;SHT31;66637;-29.628;-49.938;2023-11-21T02:41:12;20.46;87.62
77523;SHT31;66637;-29.628;-49.938;2023-11-21T02:43:44;20.42;87.54
77523;SHT31;66637;-29.628;-49.938;2023-11-21T02:46:14;20.45;87.41
77523;SHT31;66637;-29.628;-49.938;2023-11-21T02:48:44;20.38;87.32
77523;SHT31;66637;-29.628;-49.938;2023-11-21T02:51:14;20.32;87.35
77523;SHT31;66637;-29.628;-49.938;2023-11-21T02:53:46;20.31;87.30
77523;SHT31;66637;-29.628;-49.938;2023-11-21T02:56:17;20.24;87.37
77523;SHT31;66637;-29.628;-49.938;2023-11-21T02:58:49;20.26;87.31
77523;SHT31;66637;-29.628;-49.938;2023-11-21T03:01:19;20.21;87.40
77523;SHT31;66637;-29.628;-49.938;2023-11-21T03:03:49;20.28;87.34
77523;SHT31;66637;-29.628;-49.938;2023-11-21T03:06:23;20.25;87.12
77523;SHT31;66637;-29.628;-49.938;2023-11-21T03:08:53;20.21;87.26
77523;SHT31;66637;-29.628;-49.938;2023-11-21T03:11:26;20.20;87.33
77523;SHT31;66637;-29.628;-49.938;2023-11-21T03:13:56;20.17;87.33
77523;SHT31;66637;-29.628;-49.938;2023-11-21T03:16:27;20.20;87.48
77523;SHT31;66637;-29.628;-49.938;2023-11-21T03:19:05;20.11;87.59
77523;SHT31;66637;-29.628;-49.938;2023-11-21T03:21:39;20.13;87.65
77523;SHT31;66637;-29.628;-49.938;2023-11-21T03:24:10;20.10;87.68
77523;SHT31;66637;-29.628;-49.938;2023-11-21T03:26:44;20.10;87.68
77523;SHT31;66637;-29.628;-49.938;2023-11-21T03:29:15;20.07;87.78
77523;SHT31;66637;-29.628;-49.938;2023-11-21T03:31:48;20.05;87.85
77523;SHT31;66637;-29.628;-49.938;2023-11-21T03:34:26;20.07;87.94
77523;SHT31;66637;-29.628;-49.938;2023-11-21T03:37:01;20.01;87.96
77523;SHT31;66637;-29.628;-49.938;2023-11-21T03:39:32;20.00;88.02
77523;SHT31;66637;-29.628;-49.938;2023-11-21T03:42:04;19.98;88.11
77523;SHT31;66637;-29.628;-49.938;2023-11-21T03:44:34;19.98;88.16
77523;SHT31;66637;-29.628;-49.938;2023-11-21T03:47:06;19.98;88.29
77523;SHT31;66637;-29.628;-49.938;2023-11-21T03:49:38;19.95;88.35
77523;SHT31;66637;-29.628;-49.938;2023-11-21T03:52:18;19.98;88.39
77523;SHT31;66637;-29.628;-49.938;2023-11-21T03:54:50;19.94;88.44
77523;SHT31;66637;-29.628;-49.938;2023-11-21T03:57:22;19.91;88.57
77523;SHT31;66637;-29.628;-49.938;2023-11-21T03:59:54;19.93;88.68
77523;SHT31;66637;-29.628;-49.938;2023-11-21T04:02:25;19.85;88.75
77523;SHT31;66637;-29.628;-49.938;2023-11-21T04:04:57;19.83;88.90
77523;SHT31;66637;-29.628;-49.938;2023-11-21T04:07:28;19.81;89.03
77523;SHT31;66637;-29.628;-49.938;2023-11-21T04:10:00;19.81;88.97
77523;SHT31;66637;-29.628;-49.938;2023-11-21T04:12:34;19.75;88.93
77523;SHT31;66637;-29.628;-49.938;2023-11-21T04:15:07;19.74;88.87
77523;SHT31;66637;-29.628;-49.938;2023-11-21T04:17:41;19.71;88.96
77523;SHT31;66637;-29.628;-49.938;2023-11-21T04:20:11;19.70;88.94
77523;SHT31;66637;-29.628;-49.938;2023-11-21T04:22:44;19.66;89.06
77523;SHT31;66637;-29.628;-49.938;2023-11-21T04:25:15;19.62;89.01
77523;SHT31;66637;-29.628;-49.938;2023-11-21T04:27:48;19.60;89.02
77523;SHT31;66637;-29.628;-49.938;2023-11-21T04:30:19;19.59;88.95
77523;SHT31;66637;-29.628;-49.938;2023-11-21T04:32:51;19.57;88.98
77523;SHT31;66637;-29.628;-49.938;2023-11-21T04:35:21;19.56;89.03
77523;SHT31;66637;-29.628;-49.938;2023-11-21T04:37:52;19.53;88.94
77523;SHT31;66637;-29.628;-49.938;2023-11-21T04:40:23;19.57;88.89
77523;SHT31;66637;-29.628;-49.938;2023-11-21T04:42:55;19.54;88.96
77523;SHT31;66637;-29.628;-49.938;2023-11-21T04:45:27;19.54;88.96
77523;SHT31;66637;-29.628;-49.938;2023-11-21T04:47:58;19.53;88.96
77523;SHT31;66637;-29.628;-49.938;2023-11-21T04:50:28;19.52;89.03
77523;SHT31;66637;-29.628;-49.938;2023-11-21T04:53:00;19.53;89.23
77523;SHT31;66637;-29.628;-49.938;2023-11-21T04:55:32;19.53;89.28
77523;SHT31;66637;-29.628;-49.938;2023-11-21T04:58:04;19.54;89.39
77523;SHT31;66637;-29.628;-49.938;2023-11-21T05:00:36;19.52;89.44
77523;SHT31;66637;-29.628;-49.938;2023-11-21T05:03:07;19.54;89.65
77523;SHT31;66637;-29.628;-49.938;2023-11-21T05:05:40;19.56;89.87
77523;SHT31;66637;-29.628;-49.938;2023-11-21T05:08:12;19.56;89.70
77523;SHT31;66637;-29.628;-49.938;2023-11-21T05:10:43;19.54;89.92
77523;SHT31;66637;-29.628;-49.938;2023-11-21T05:13:15;19.53;89.93
77523;SHT31;66637;-29.628;-49.938;2023-11-21T05:15:47;19.54;89.96
77523;SHT31;66637;-29.628;-49.938;2023-11-21T05:18:19;19.56;90.00
77523;SHT31;66637;-29.628;-49.938;2023-11-21T05:20:50;19.60;90.05
77523;SHT31;66637;-29.628;-49.938;2023-11-21T05:23:21;19.66;90.26
77523;SHT31;66637;-29.628;-49.938;2023-11-21T05:25:52;19.70;90.21
77523;SHT31;66637;-29.628;-49.938;2023-11-21T05:28:24;19.67;90.30
77523;SHT31;66637;-29.628;-49.938;2023-11-21T05:30:55;19.69;90.33
77523;SHT31;66637;-29.628;-49.938;2023-11-21T05:33:41;19.71;90.25
77523;SHT31;66637;-29.628;-49.938;2023-11-21T05:36:14;19.71;90.35
77523;SHT31;66637;-29.628;-49.938;2023-11-21T05:38:46;19.69;90.31
77523;SHT31;66637;-29.628;-49.938;2023-11-21T05:41:18;19.67;90.32
77523;SHT31;66637;-29.628;-49.938;2023-11-21T05:43:48;19.64;90.17
77523;SHT31;66637;-29.628;-49.938;2023-11-21T05:46:19;19.59;90.17
77523;SHT31;66637;-29.628;-49.938;2023-11-21T05:48:50;19.53;90.20
77523;SHT31;66637;-29.628;-49.938;2023-11-21T05:51:22;19.52;90.22
77523;SHT31;66637;-29.628;-49.938;2023-11-21T05:53:55;19.53;90.48
77523;SHT31;66637;-29.628;-49.938;2023-11-21T05:56:28;19.47;90.37
77523;SHT31;66637;-29.628;-49.938;2023-11-21T05:59:02;19.39;90.21
77523;SHT31;66637;-29.628;-49.938;2023-11-21T06:01:34;19.33;90.03
77523;SHT31;66637;-29.628;-49.938;2023-11-21T06:04:09;19.29;89.82
77523;SHT31;66637;-29.628;-49.938;2023-11-21T06:06:42;19.22;89.77
77523;SHT31;66637;-29.628;-49.938;2023-11-21T06:09:13;19.20;89.66
77523;SHT31;66637;-29.628;-49.938;2023-11-21T06:11:43;19.23;89.40
77523;SHT31;66637;-29.628;-49.938;2023-11-21T06:14:14;19.23;89.39
77523;SHT31;66637;-29.628;-49.938;2023-11-21T06:16:47;19.20;89.16
77523;SHT31;66637;-29.628;-49.938;2023-11-21T06:19:19;19.20;89.07
77523;SHT31;66637;-29.628;-49.938;2023-11-21T06:21:51;19.18;88.98
77523;SHT31;66637;-29.628;-49.938;2023-11-21T06:24:23;19.18;88.81
77523;SHT31;66637;-29.628;-49.938;2023-11-21T06:26:56;19.16;88.67
77523;SHT31;66637;-29.628;-49.938;2023-11-21T06:29:28;19.09;88.56
77523;SHT31;66637;-29.628;-49.938;2023-11-21T06:31:59;19.13;88.51
77523;SHT31;66637;-29.628;-49.938;2023-11-21T06:34:30;19.12;88.41
77523;SHT31;66637;-29.628;-49.938;2023-11-21T06:37:01;19.10;88.33
77523;SHT31;66637;-29.628;-49.938;2023-11-21T06:39:36;19.10;88.17
77523;SHT31;66637;-29.628;-49.938;2023-11-21T06:42:07;19.09;88.26
77523;SHT31;66637;-29.628;-49.938;2023-11-21T06:44:41;19.09;88.33
77523;SHT31;66637;-29.628;-49.938;2023-11-21T06:47:13;19.08;88.29
77523;SHT31;66637;-29.628;-49.938;2023-11-21T06:49:44;19.05;88.31
77523;SHT31;66637;-29.628;-49.938;2023-11-21T06:52:18;19.06;88.18
77523;SHT31;66637;-29.628;-49.938;2023-11-21T06:54:50;19.03;88.20
77523;SHT31;66637;-29.628;-49.938;2023-11-21T06:57:23;19.05;88.24
77523;SHT31;66637;-29.628;-49.938;2023-11-21T06:59:55;19.05;88.40
77523;SHT31;66637;-29.628;-49.938;2023-11-21T07:02:28;19.03;88.40
77523;SHT31;66637;-29.628;-49.938;2023-11-21T07:05:00;19.09;88.57
77523;SHT31;66637;-29.628;-49.938;2023-11-21T07:07:30;19.05;88.52
77523;SHT31;66637;-29.628;-49.938;2023-11-21T07:10:03;19.06;88.47
77523;SHT31;66637;-29.628;-49.938;2023-11-21T07:12:35;19.03;88.57
77523;SHT31;66637;-29.628;-49.938;2023-11-21T07:15:07;19.05;88.70
77523;SHT31;66637;-29.628;-49.938;2023-11-21T07:17:38;19.02;88.82
77523;SHT31;66637;-29.628;-49.938;2023-11-21T07:32:10;18.99;88.60
77523;SHT31;66637;-29.628;-49.938;2023-11-21T07:34:42;18.96;88.58
77523;SHT31;66637;-29.628;-49.938;2023-11-21T07:37:14;18.94;88.69
77523;SHT31;66637;-29.628;-49.938;2023-11-21T07:39:45;18.91;88.65
77523;SHT31;66637;-29.628;-49.938;2023-11-21T07:42:16;18.88;88.73
77523;SHT31;66637;-29.628;-49.938;2023-11-21T07:44:50;18.89;88.74
77523;SHT31;66637;-29.628;-49.938;2023-11-21T07:47:21;18.84;88.86
77523;SHT31;66637;-29.628;-49.938;2023-11-21T07:49:53;18.87;88.88
77523;SHT31;66637;-29.628;-49.938;2023-11-21T07:52:23;18.85;88.95
77523;SHT31;66637;-29.628;-49.938;2023-11-21T07:54:53;18.87;88.87
77523;SHT31;66637;-29.628;-49.938;2023-11-21T07:57:24;18.85;88.84
77523;SHT31;66637;-29.628;-49.938;2023-11-21T07:59:54;18.81;89.07
77523;SHT31;66637;-29.628;-49.938;2023-11-21T08:02:26;18.79;89.03
77523;SHT31;66637;-29.628;-49.938;2023-11-21T08:05:00;18.79;89.01
77523;SHT31;66637;-29.628;-49.938;2023-11-21T08:07:31;18.88;89.12
77523;SHT31;66637;-29.628;-49.938;2023-11-21T08:10:04;18.85;88.89
77523;SHT31;66637;-29.628;-49.938;2023-11-21T08:12:41;18.89;88.92
77523;SHT31;66637;-29.628;-49.938;2023-11-21T08:15:13;18.88;88.71
77523;SHT31;66637;-29.628;-49.938;2023-11-21T08:17:44;18.89;88.94
77523;SHT31;66637;-29.628;-49.938;2023-11-21T08:20:16;18.91;88.95
77523;SHT31;66637;-29.628;-49.938;2023-11-21T08:22:48;18.95;88.65
77523;SHT31;66637;-29.628;-49.938;2023-11-21T08:25:19;19.02;88.81
77523;SHT31;66637;-29.628;-49.938;2023-11-21T08:27:50;19.08;88.90
77523;SHT31;66637;-29.628;-49.938;2023-11-21T08:30:21;19.15;88.62
77523;SHT31;66637;-29.628;-49.938;2023-11-21T08:32:54;19.23;88.63
77523;SHT31;66637;-29.628;-49.938;2023-11-21T08:35:27;19.40;88.80
77523;SHT31;66637;-29.628;-49.938;2023-11-21T08:37:58;19.42;88.98
77523;SHT31;66637;-29.628;-49.938;2023-11-21T08:40:28;19.50;88.96
77523;SHT31;66637;-29.628;-49.938;2023-11-21T08:42:59;19.53;88.73
77523;SHT31;66637;-29.628;-49.938;2023-11-21T08:45:30;19.59;88.39
77523;SHT31;66637;-29.628;-49.938;2023-11-21T08:48:05;19.60;88.68
77523;SHT31;66637;-29.628;-49.938;2023-11-21T08:50:36;19.60;88.79
77523;SHT31;66637;-29.628;-49.938;2023-11-21T08:53:08;19.64;88.79
77523;SHT31;66637;-29.628;-49.938;2023-11-21T08:55:41;19.75;88.82
77523;SHT31;66637;-29.628;-49.938;2023-11-21T08:58:16;19.85;88.35
77523;SHT31;66637;-29.628;-49.938;2023-11-21T09:00:51;20.05;88.31
77523;SHT31;66637;-29.628;-49.938;2023-11-21T09:03:22;20.20;88.22
77523;SHT31;66637;-29.628;-49.938;2023-11-21T09:05:53;20.26;88.18
77523;SHT31;66637;-29.628;-49.938;2023-11-21T09:08:24;20.39;87.76
77523;SHT31;66637;-29.628;-49.938;2023-11-21T09:10:54;20.45;87.82
77523;SHT31;66637;-29.628;-49.938;2023-11-21T09:13:24;20.49;87.73
77523;SHT31;66637;-29.628;-49.938;2023-11-21T09:15:58;20.55;87.23
77523;SHT31;66637;-29.628;-49.938;2023-11-21T09:18:29;20.64;87.44
77523;SHT31;66637;-29.628;-49.938;2023-11-21T09:21:00;20.71;87.40
77523;SHT31;66637;-29.628;-49.938;2023-11-21T09:23:36;20.75;86.89
77523;SHT31;66637;-29.628;-49.938;2023-11-21T09:26:06;20.86;87.09
77523;SHT31;66637;-29.628;-49.938;2023-11-21T09:28:38;20.93;86.96
77523;SHT31;66637;-29.628;-49.938;2023-11-21T09:31:10;20.90;87.18
77523;SHT31;66637;-29.628;-49.938;2023-11-21T09:33:42;20.97;86.86
77523;SHT31;66637;-29.628;-49.938;2023-11-21T09:36:13;21.04;86.88
77523;SHT31;66637;-29.628;-49.938;2023-11-21T09:38:44;21.11;86.95
77523;SHT31;66637;-29.628;-49.938;2023-11-21T09:41:21;21.14;87.17
77523;SHT31;66637;-29.628;-49.938;2023-11-21T09:43:57;21.29;86.86
77523;SHT31;66637;-29.628;-49.938;2023-11-21T09:46:31;21.31;86.39
77523;SHT31;66637;-29.628;-49.938;2023-11-21T09:49:04;24.59;81.28
77523;SHT31;66637;-29.628;-49.938;2023-11-21T09:51:47;27.25;75.82
77523;SHT31;66637;-29.628;-49.938;2023-11-21T09:54:18;28.13;69.97
77523;SHT31;66637;-29.628;-49.938;2023-11-21T09:56:51;28.90;68.27
77523;SHT31;66637;-29.628;-49.938;2023-11-21T09:59:24;29.12;65.24
77523;SHT31;66637;-29.628;-49.938;2023-11-21T10:01:57;28.65;65.99
77523;SHT31;66637;-29.628;-49.938;2023-11-21T10:04:31;27.79;68.41
77523;SHT31;66637;-29.628;-49.938;2023-11-21T10:07:03;27.46;69.67
77523;SHT31;66637;-29.628;-49.938;2023-11-21T10:09:40;28.01;68.38
77523;SHT31;66637;-29.628;-49.938;2023-11-21T10:12:15;27.55;69.19
77523;SHT31;66637;-29.628;-49.938;2023-11-21T10:14:49;27.45;70.23
77523;SHT31;66637;-29.628;-49.938;2023-11-21T10:17:24;26.94;71.57
77523;SHT31;66637;-29.628;-49.938;2023-11-21T10:20:04;27.04;72.12
77523;SHT31;66637;-29.628;-49.938;2023-11-21T10:22:43;26.76;71.91
77523;SHT31;66637;-29.628;-49.938;2023-11-21T10:25:14;26.26;73.52
77523;SHT31;66637;-29.628;-49.938;2023-11-21T10:27:47;26.16;73.42
77523;SHT31;66637;-29.628;-49.938;2023-11-21T10:30:18;26.26;73.37
77523;SHT31;66637;-29.628;-49.938;2023-11-21T10:32:50;26.14;74.67
77523;SHT31;66637;-29.628;-49.938;2023-11-21T10:35:21;26.70;72.72
77523;SHT31;66637;-29.628;-49.938;2023-11-21T10:38:00;27.02;72.40
77523;SHT31;66637;-29.628;-49.938;2023-11-21T10:40:32;26.65;71.83
77523;SHT31;66637;-29.628;-49.938;2023-11-21T10:43:07;26.54;73.36
77523;SHT31;66637;-29.628;-49.938;2023-11-21T10:45:44;26.78;73.96
77523;SHT31;66637;-29.628;-49.938;2023-11-21T10:48:16;27.31;71.28
77523;SHT31;66637;-29.628;-49.938;2023-11-21T10:50:54;27.38;70.43
77523;SHT31;66637;-29.628;-49.938;2023-11-21T10:54:00;27.45;70.96
77523;SHT31;66637;-29.628;-49.938;2023-11-21T10:56:36;27.78;70.22
77523;SHT31;66637;-29.628;-49.938;2023-11-21T10:59:18;28.20;69.42
77523;SHT31;66637;-29.628;-49.938;2023-11-21T11:01:57;28.01;68.47
77523;SHT31;66637;-29.628;-49.938;2023-11-21T11:04:37;27.39;71.94
77523;SHT31;66637;-29.628;-49.938;2023-11-21T11:07:08;27.35;69.93
77523;SHT31;66637;-29.628;-49.938;2023-11-21T11:09:44;27.21;70.18
77523;SHT31;66637;-29.628;-49.938;2023-11-21T11:12:23;27.58;70.25
77523;SHT31;66637;-29.628;-49.938;2023-11-21T11:15:01;27.62;70.66
77523;SHT31;66637;-29.628;-49.938;2023-11-21T11:17:37;27.78;69.93
77523;SHT31;66637;-29.628;-49.938;2023-11-21T11:20:34;27.70;70.57
77523;SHT31;66637;-29.628;-49.938;2023-11-21T11:32:46;28.24;69.27
77523;SHT31;66637;-29.628;-49.938;2023-11-21T11:36:33;28.91;68.20
77523;SHT31;66637;-29.628;-49.938;2023-11-21T11:39:37;28.04;69.13
77523;SHT31;66637;-29.628;-49.938;2023-11-21T11:42:29;28.21;69.01
77523;SHT31;66637;-29.628;-49.938;2023-11-21T11:45:59;27.80;69.91
77523;SHT31;66637;-29.628;-49.938;2023-11-21T11:49:27;27.73;70.42
77523;SHT31;66637;-29.628;-49.938;2023-11-21T11:52:41;27.43;71.00
77523;SHT31;66637;-29.628;-49.938;2023-11-21T11:55:25;27.29;71.57
77523;SHT31;66637;-29.628;-49.938;2023-11-21T11:58:38;27.35;71.58
77523;SHT31;66637;-29.628;-49.938;2023-11-21T12:01:31;27.05;72.47
77523;SHT31;66637;-29.628;-49.938;2023-11-21T12:04:32;26.92;72.81
77523;SHT31;66637;-29.628;-49.938;2023-11-21T12:07:46;27.16;73.73
77523;SHT31;66637;-29.628;-49.938;2023-11-21T12:10:45;27.90;70.98
77523;SHT31;66637;-29.628;-49.938;2023-11-21T12:13:20;27.83;70.02
77523;SHT31;66637;-29.628;-49.938;2023-11-21T12:16:15;27.94;73.05
77523;SHT31;66637;-29.628;-49.938;2023-11-21T12:23:11;27.35;70.75
77523;SHT31;66637;-29.628;-49.938;2023-11-21T12:25:56;27.34;71.62
77523;SHT31;66637;-29.628;-49.938;2023-11-21T12:28:42;27.46;72.48
77523;SHT31;66637;-29.628;-49.938;2023-11-21T12:31:32;27.60;71.45
77523;SHT31;66637;-29.628;-49.938;2023-11-21T12:34:07;27.90;71.36
77523;SHT31;66637;-29.628;-49.938;2023-11-21T12:37:31;28.06;71.35
77523;SHT31;66637;-29.628;-49.938;2023-11-21T12:40:16;28.14;70.61
77523;SHT31;66637;-29.628;-49.938;2023-11-21T12:42:53;27.85;71.64
77523;SHT31;66637;-29.628;-49.938;2023-11-21T12:45:37;27.86;71.89
77523;SHT31;66637;-29.628;-49.938;2023-11-21T12:48:09;27.70;71.72
77523;SHT31;66637;-29.628;-49.938;2023-11-21T12:50:47;27.70;72.55
77523;SHT31;66637;-29.628;-49.938;2023-11-21T12:53:27;27.76;72.95
77523;SHT31;66637;-29.628;-49.938;2023-11-21T12:56:23;27.99;70.87
77523;SHT31;66637;-29.628;-49.938;2023-11-21T12:59:03;27.74;71.64
77523;SHT31;66637;-29.628;-49.938;2023-11-21T13:01:56;27.92;71.98
77523;SHT31;66637;-29.628;-49.938;2023-11-21T13:04:32;27.82;72.67
77523;SHT31;66637;-29.628;-49.938;2023-11-21T13:07:07;28.25;71.37
77523;SHT31;66637;-29.628;-49.938;2023-11-21T13:09:47;28.34;71.40
77523;SHT31;66637;-29.628;-49.938;2023-11-21T13:12:46;28.47;70.79
77523;SHT31;66637;-29.628;-49.938;2023-11-21T13:15:40;28.50;70.13
77523;SHT31;66637;-29.628;-49.938;2023-11-21T13:18:19;28.33;71.10
77523;SHT31;66637;-29.628;-49.938;2023-11-21T13:21:05;28.44;71.96
77523;SHT31;66637;-29.628;-49.938;2023-11-21T13:23:55;28.44;70.39
77523;SHT31;66637;-29.628;-49.938;2023-11-21T13:26:29;27.99;72.50
77523;SHT31;66637;-29.628;-49.938;2023-11-21T13:29:11;27.59;74.26
77523;SHT31;66637;-29.628;-49.938;2023-11-21T13:31:43;27.27;74.09
77523;SHT31;66637;-29.628;-49.938;2023-11-21T13:34:19;27.46;73.56
77523;SHT31;66637;-29.628;-49.938;2023-11-21T13:36:56;27.49;73.35
77523;SHT31;66637;-29.628;-49.938;2023-11-21T13:39:34;27.96;73.19
77523;SHT31;66637;-29.628;-49.938;2023-11-21T13:42:14;27.88;73.17
77523;SHT31;66637;-29.628;-49.938;2023-11-21T13:45:19;27.69;73.83
77523;SHT31;66637;-29.628;-49.938;2023-11-21T13:48:02;27.49;73.73
77523;SHT31;66637;-29.628;-49.938;2023-11-21T13:50:46;27.46;73.85
77523;SHT31;66637;-29.628;-49.938;2023-11-21T13:53:28;27.73;73.29
77523;SHT31;66637;-29.628;-49.938;2023-11-21T13:55:58;27.52;73.57
77523;SHT31;66637;-29.628;-49.938;2023-11-21T13:58:38;27.89;73.52
77523;SHT31;66637;-29.628;-49.938;2023-11-21T14:01:23;27.66;73.47
77523;SHT31;66637;-29.628;-49.938;2023-11-21T14:04:02;27.49;74.40
77523;SHT31;66637;-29.628;-49.938;2023-11-21T14:07:10;27.11;74.51
77523;SHT31;66637;-29.628;-49.938;2023-11-21T14:10:07;27.09;75.63
77523;SHT31;66637;-29.628;-49.938;2023-11-21T14:12:44;27.19;75.63
77523;SHT31;66637;-29.628;-49.938;2023-11-21T14:15:15;27.02;75.98
77523;SHT31;66637;-29.628;-49.938;2023-11-21T14:17:49;26.81;76.36
77523;SHT31;66637;-29.628;-49.938;2023-11-21T14:20:21;26.90;76.29
77523;SHT31;66637;-29.628;-49.938;2023-11-21T14:22:54;26.95;75.95
77523;SHT31;66637;-29.628;-49.938;2023-11-21T14:25:27;26.81;76.56
77523;SHT31;66637;-29.628;-49.938;2023-11-21T14:28:02;26.97;76.83
77523;SHT31;66637;-29.628;-49.938;2023-11-21T14:30:33;26.90;76.31
77523;SHT31;66637;-29.628;-49.938;2023-11-21T14:33:05;26.84;76.25
77523;SHT31;66637;-29.628;-49.938;2023-11-21T14:35:39;26.85;76.35
77523;SHT31;66637;-29.628;-49.938;2023-11-21T14:38:11;26.80;76.74
77523;SHT31;66637;-29.628;-49.938;2023-11-21T14:40:45;26.63;76.57
77523;SHT31;66637;-29.628;-49.938;2023-11-21T14:43:18;26.73;76.48
77523;SHT31;66637;-29.628;-49.938;2023-11-21T14:45:55;26.98;76.65
77523;SHT31;66637;-29.628;-49.938;2023-11-21T14:48:28;27.28;75.80
77523;SHT31;66637;-29.628;-49.938;2023-11-21T14:51:16;27.39;75.06
77523;SHT31;66637;-29.628;-49.938;2023-11-21T14:54:02;27.07;75.85
77523;SHT31;66637;-29.628;-49.938;2023-11-21T14:56:37;27.08;76.04
77523;SHT31;66637;-29.628;-49.938;2023-11-21T14:59:11;27.35;75.68
77523;SHT31;66637;-29.628;-49.938;2023-11-21T15:01:47;27.12;76.44
77523;SHT31;66637;-29.628;-49.938;2023-11-21T15:04:28;27.32;77.26
77523;SHT31;66637;-29.628;-49.938;2023-11-21T15:07:10;27.50;74.95
77523;SHT31;66637;-29.628;-49.938;2023-11-21T15:09:46;27.53;76.00
77523;SHT31;66637;-29.628;-49.938;2023-11-21T15:12:18;27.65;76.37
77523;SHT31;66637;-29.628;-49.938;2023-11-21T15:14:52;27.38;75.19
77523;SHT31;66637;-29.628;-49.938;2023-11-21T15:17:27;27.42;75.49
77523;SHT31;66637;-29.628;-49.938;2023-11-21T15:20:01;27.38;75.11
77523;SHT31;66637;-29.628;-49.938;2023-11-21T15:22:34;27.22;75.86
77523;SHT31;66637;-29.628;-49.938;2023-11-21T15:25:05;27.45;75.22
77523;SHT31;66637;-29.628;-49.938;2023-11-21T15:27:44;27.56;75.54
77523;SHT31;66637;-29.628;-49.938;2023-11-21T15:30:17;27.27;75.84
77523;SHT31;66637;-29.628;-49.938;2023-11-21T15:32:55;27.25;75.57
77523;SHT31;66637;-29.628;-49.938;2023-11-21T15:35:27;27.04;76.97
77523;SHT31;66637;-29.628;-49.938;2023-11-21T15:37:59;27.24;75.97
77523;SHT31;66637;-29.628;-49.938;2023-11-21T15:40:31;27.21;76.56
77523;SHT31;66637;-29.628;-49.938;2023-11-21T15:43:05;27.29;75.78
77523;SHT31;66637;-29.628;-49.938;2023-11-21T15:45:43;27.67;75.11
77523;SHT31;66637;-29.628;-49.938;2023-11-21T15:48:18;27.66;75.12
77523;SHT31;66637;-29.628;-49.938;2023-11-21T15:50:49;27.55;75.37
77523;SHT31;66637;-29.628;-49.938;2023-11-21T15:53:23;27.50;75.74
77523;SHT31;66637;-29.628;-49.938;2023-11-21T15:55:53;27.69;75.49
77523;SHT31;66637;-29.628;-49.938;2023-11-21T15:58:25;27.46;75.87
77523;SHT31;66637;-29.628;-49.938;2023-11-21T16:00:56;27.41;75.60
77523;SHT31;66637;-29.628;-49.938;2023-11-21T16:03:28;27.37;75.66